createdAt,value
2018-06-25T00:00:54.364Z,98468.03
2018-06-25T00:01:57.155Z,98462.88
2018-06-25T00:02:59.939Z,98462.98
2018-06-25T00:04:02.892Z,98463.54
2018-06-25T00:05:06.143Z,98461.36
2018-06-25T00:06:08.985Z,98465.34
2018-06-25T00:07:11.784Z,98461.68
2018-06-25T00:08:14.561Z,98465.55
2018-06-25T00:09:17.320Z,98464.52
2018-06-25T00:10:20.129Z,98461.76
2018-06-25T00:11:24.310Z,98464.57
2018-06-25T00:12:27.112Z,98469.39
2018-06-25T00:13:29.878Z,98467.34
2018-06-25T00:14:32.660Z,98466.63
2018-06-25T00:56:30.332Z,98458.31
2018-06-25T00:57:33.065Z,98451.23
2018-06-25T00:58:36.369Z,98451.16
2018-06-25T00:59:39.267Z,98454.23
2018-06-25T01:00:42.565Z,98459.58
2018-06-25T01:01:45.328Z,98452.77
2018-06-25T01:02:48.116Z,98456.08
2018-06-25T01:03:50.915Z,98454.36
2018-06-25T01:04:53.986Z,98461.00
2018-06-25T01:05:56.809Z,98456.42
2018-06-25T01:06:59.814Z,98457.66
2018-06-25T01:08:02.628Z,98460.86
2018-06-25T01:09:05.441Z,98467.63
2018-06-25T01:10:08.586Z,98460.20
2018-06-25T01:11:11.779Z,98464.55
2018-06-25T01:12:15.035Z,98462.49
2018-06-25T01:13:17.827Z,98465.34
2018-06-25T01:14:21.552Z,98460.81
2018-06-25T01:15:24.377Z,98460.58
2018-06-25T01:16:27.549Z,98459.86
2018-06-25T01:17:31.820Z,98450.76
2018-06-25T01:18:34.585Z,98457.94
2018-06-25T01:19:37.616Z,98459.88
2018-06-25T01:20:40.427Z,98460.70
2018-06-25T01:21:43.176Z,98463.54
2018-06-25T01:22:45.943Z,98470.64
2018-06-25T01:23:49.648Z,98460.83
2018-06-25T01:24:52.506Z,98457.30
2018-06-25T01:25:55.435Z,98451.83
2018-06-25T01:26:58.243Z,98451.34
2018-06-25T01:28:01.223Z,98450.30
2018-06-25T01:29:04.248Z,98446.06
2018-06-25T01:30:07.394Z,98436.94
2018-06-25T01:31:10.219Z,98443.20
2018-06-25T01:32:14.010Z,98443.12
2018-06-25T01:33:16.979Z,98440.57
2018-06-25T01:34:19.784Z,98442.17
2018-06-25T01:35:22.568Z,98443.78
2018-06-25T01:36:26.466Z,98447.76
2018-06-25T01:37:29.292Z,98449.70
2018-06-25T01:38:35.091Z,98445.86
2018-06-25T01:39:37.853Z,98447.56
2018-06-25T01:40:40.661Z,98448.34
2018-06-25T01:41:43.513Z,98441.84
2018-06-25T01:42:47.202Z,98441.94
2018-06-25T01:43:50.123Z,98444.13
2018-06-25T01:44:52.951Z,98444.47
2018-06-25T01:45:55.732Z,98442.16
2018-06-25T01:46:58.712Z,98442.28
2018-06-25T01:48:01.525Z,98444.70
2018-06-25T01:49:04.731Z,98445.05
2018-06-25T01:50:07.563Z,98445.41
2018-06-25T01:51:10.365Z,98443.67
2018-06-25T01:52:13.157Z,98445.02
2018-06-25T01:53:16.490Z,98443.21
2018-06-25T01:54:19.318Z,98437.39
2018-06-25T01:55:22.397Z,98436.66
2018-06-25T01:56:25.190Z,98437.79
2018-06-25T01:57:28.112Z,98436.42
2018-06-25T01:58:30.891Z,98436.77
2018-06-25T01:59:33.818Z,98439.70
2018-06-25T02:00:36.836Z,98440.84
2018-06-25T02:01:40.230Z,98442.55
2018-06-25T02:02:43.264Z,98443.62
2018-06-25T02:03:46.672Z,98440.64
2018-06-25T02:04:49.515Z,98443.65
2018-06-25T02:05:52.293Z,98443.27
2018-06-25T02:06:55.078Z,98439.20
2018-06-25T02:07:58.179Z,98435.00
2018-06-25T02:09:01.014Z,98437.05
2018-06-25T02:10:03.861Z,98439.91
2018-06-25T02:11:06.651Z,98435.60
2018-06-25T02:12:09.638Z,98439.50
2018-06-25T02:13:12.430Z,98437.77
2018-06-25T02:14:15.561Z,98444.56
2018-06-25T02:15:18.350Z,98442.30
2018-06-25T02:16:22.242Z,98442.24
2018-06-25T02:17:25.114Z,98442.83
2018-06-25T02:18:27.920Z,98450.20
2018-06-25T02:19:30.761Z,98443.06
2018-06-25T02:20:33.872Z,98438.69
2018-06-25T02:21:36.670Z,98442.76
2018-06-25T02:22:39.474Z,98445.31
2018-06-25T02:23:42.270Z,98446.69
2018-06-25T02:24:45.064Z,98440.77
2018-06-25T02:25:47.870Z,98446.11
2018-06-25T02:26:50.962Z,98443.61
2018-06-25T02:27:53.781Z,98445.31
2018-06-25T02:28:56.643Z,98445.89
2018-06-25T02:29:59.510Z,98445.36
2018-06-25T02:31:02.433Z,98448.16
2018-06-25T02:32:05.192Z,98444.19
2018-06-25T02:33:08.231Z,98449.90
2018-06-25T02:34:10.995Z,98447.65
2018-06-25T02:35:13.973Z,98453.59
2018-06-25T02:36:16.794Z,98451.55
2018-06-25T02:37:19.581Z,98446.35
2018-06-25T02:38:22.403Z,98439.27
2018-06-25T02:39:25.465Z,98439.98
2018-06-25T02:40:28.275Z,98440.53
2018-06-25T02:41:32.017Z,98434.48
2018-06-25T02:42:34.788Z,98434.62
2018-06-25T02:43:37.592Z,98433.25
2018-06-25T02:44:41.970Z,98435.37
2018-06-25T02:45:46.785Z,98434.38
2018-06-25T02:46:50.123Z,98429.24
2018-06-25T02:47:53.882Z,98434.43
2018-06-25T02:48:59.635Z,98435.45
2018-06-25T02:50:02.929Z,98430.95
2018-06-25T02:51:05.715Z,98436.77
2018-06-25T02:52:09.222Z,98434.12
2018-06-25T02:53:12.071Z,98430.95
2018-06-25T02:54:15.000Z,98434.23
2018-06-25T02:55:17.797Z,98441.22
2018-06-25T02:56:20.595Z,98436.31
2018-06-25T02:57:23.523Z,98435.11
2018-06-25T02:58:28.347Z,98439.15
2018-06-25T02:59:31.113Z,98434.75
2018-06-25T03:00:33.924Z,98435.29
2018-06-25T03:01:36.673Z,98436.56
2018-06-25T03:02:39.471Z,98439.84
2018-06-25T03:03:42.277Z,98446.75
2018-06-25T03:04:45.353Z,98446.30
2018-06-25T03:05:48.148Z,98453.18
2018-06-25T03:06:50.936Z,98452.16
2018-06-25T03:07:53.727Z,98447.38
2018-06-25T03:08:56.511Z,98442.72
2018-06-25T03:09:59.282Z,98439.78
2018-06-25T03:11:02.072Z,98442.89
2018-06-25T03:12:04.871Z,98439.95
2018-06-25T03:13:07.677Z,98445.63
2018-06-25T03:14:10.510Z,98445.39
2018-06-25T03:15:14.439Z,98440.16
2018-06-25T03:16:17.776Z,98449.94
2018-06-25T03:17:20.566Z,98445.05
2018-06-25T03:18:23.646Z,98444.50
2018-06-25T03:19:26.697Z,98441.77
2018-06-25T03:20:29.473Z,98439.48
2018-06-25T03:21:32.298Z,98443.81
2018-06-25T03:22:35.372Z,98444.08
2018-06-25T03:23:38.134Z,98448.62
2018-06-25T03:24:40.938Z,98445.76
2018-06-25T03:25:43.763Z,98446.67
2018-06-25T03:26:46.587Z,98448.66
2018-06-25T03:27:49.361Z,98448.16
2018-06-25T03:28:52.553Z,98453.48
2018-06-25T03:29:55.395Z,98449.28
2018-06-25T03:30:58.194Z,98454.55
2018-06-25T03:32:00.997Z,98449.36
2018-06-25T03:33:03.805Z,98458.48
2018-06-25T03:34:06.614Z,98456.57
2018-06-25T03:35:09.682Z,98459.17
2018-06-25T03:36:12.485Z,98460.45
2018-06-25T03:37:15.279Z,98461.37
2018-06-25T03:38:18.088Z,98465.36
2018-06-25T03:39:20.859Z,98463.67
2018-06-25T03:40:23.653Z,98457.06
2018-06-25T03:41:26.886Z,98465.45
2018-06-25T03:42:29.753Z,98467.63
2018-06-25T03:43:32.556Z,98468.80
2018-06-25T03:44:35.367Z,98466.93
2018-06-25T03:45:38.337Z,98462.88
2018-06-25T03:46:41.133Z,98464.78
2018-06-25T03:47:44.234Z,98462.77
2018-06-25T03:48:47.031Z,98470.68
2018-06-25T03:49:49.822Z,98465.41
2018-06-25T03:50:52.615Z,98466.63
2018-06-25T03:51:55.382Z,98467.47
2018-06-25T03:52:58.211Z,98464.54
2018-06-25T03:54:01.010Z,98472.29
2018-06-25T03:55:03.796Z,98474.39
2018-06-25T03:56:06.603Z,98468.59
2018-06-25T03:57:09.482Z,98471.13
2018-06-25T03:58:12.284Z,98469.17
2018-06-25T03:59:15.087Z,98471.33
2018-06-25T04:00:18.173Z,98479.03
2018-06-25T04:01:21.859Z,98468.83
2018-06-25T04:02:25.341Z,98471.95
2018-06-25T04:03:29.214Z,98470.83
2018-06-25T04:04:32.036Z,98469.08
2018-06-25T04:05:35.503Z,98480.44
2018-06-25T04:06:38.597Z,98478.88
2018-06-25T04:07:41.403Z,98480.30
2018-06-25T04:08:44.471Z,98487.58
2018-06-25T04:09:48.084Z,98482.50
2018-06-25T04:10:50.942Z,98487.62
2018-06-25T04:11:53.806Z,98482.88
2018-06-25T04:12:57.021Z,98482.20
2018-06-25T04:13:59.914Z,98486.53
2018-06-25T04:15:02.703Z,98489.41
2018-06-25T04:16:05.584Z,98485.65
2018-06-25T04:17:08.427Z,98485.24
2018-06-25T04:18:11.213Z,98484.80
2018-06-25T04:19:14.401Z,98491.94
2018-06-25T04:20:17.234Z,98485.55
2018-06-25T04:21:20.234Z,98487.78
2018-06-25T04:22:23.564Z,98485.83
2018-06-25T04:23:27.252Z,98484.77
2018-06-25T04:24:30.603Z,98493.21
2018-06-25T04:25:34.833Z,98487.44
2018-06-25T04:26:37.644Z,98494.41
2018-06-25T04:27:42.381Z,98500.44
2018-06-25T04:28:45.215Z,98501.11
2018-06-25T04:29:48.045Z,98497.59
2018-06-25T04:30:50.845Z,98502.77
2018-06-25T04:31:55.133Z,98507.55
2018-06-25T04:32:57.906Z,98510.29
2018-06-25T04:34:01.290Z,98509.54
2018-06-25T04:35:04.106Z,98505.44
2018-06-25T04:36:06.888Z,98511.05
2018-06-25T04:37:10.372Z,98510.81
2018-06-25T04:38:13.501Z,98510.47
2018-06-25T04:39:16.312Z,98513.64
2018-06-25T04:40:20.195Z,98509.16
2018-06-25T04:41:23.019Z,98514.48
2018-06-25T04:42:25.815Z,98515.48
2018-06-25T04:43:29.573Z,98521.19
2018-06-25T04:44:33.602Z,98518.39
2018-06-25T04:45:36.399Z,98522.30
2018-06-25T04:46:39.565Z,98521.75
2018-06-25T04:47:42.533Z,98519.98
2018-06-25T04:48:45.929Z,98524.53
2018-06-25T04:49:48.925Z,98519.30
2018-06-25T04:50:52.097Z,98520.73
2018-06-25T04:51:54.931Z,98525.91
2018-06-25T04:52:57.755Z,98522.26
2018-06-25T04:54:00.550Z,98523.22
2018-06-25T04:55:03.359Z,98524.78
2018-06-25T04:56:06.151Z,98529.23
2018-06-25T04:57:09.337Z,98523.13
2018-06-25T04:58:12.274Z,98521.11
2018-06-25T04:59:15.093Z,98525.11
2018-06-25T05:00:17.995Z,98522.67
2018-06-25T05:01:21.687Z,98524.05
2018-06-25T05:02:24.565Z,98523.70
2018-06-25T05:03:27.945Z,98518.95
2018-06-25T05:04:30.731Z,98521.11
2018-06-25T05:05:33.685Z,98523.88
2018-06-25T05:06:36.525Z,98526.65
2018-06-25T05:07:39.325Z,98527.67
2018-06-25T05:08:43.211Z,98526.78
2018-06-25T05:09:46.482Z,98526.30
2018-06-25T05:10:49.290Z,98532.33
2018-06-25T05:11:52.125Z,98533.11
2018-06-25T05:12:54.958Z,98533.08
2018-06-25T05:13:57.790Z,98529.11
2018-06-25T05:15:00.621Z,98529.48
2018-06-25T05:16:03.986Z,98530.37
2018-06-25T05:17:07.503Z,98528.42
2018-06-25T05:18:10.270Z,98530.23
2018-06-25T05:19:13.070Z,98529.70
2018-06-25T05:20:15.877Z,98534.75
2018-06-25T05:21:18.663Z,98532.77
2018-06-25T05:22:22.780Z,98535.51
2018-06-25T05:23:26.011Z,98533.86
2018-06-25T05:24:28.821Z,98529.80
2018-06-25T05:25:31.736Z,98529.45
2018-06-25T05:26:34.611Z,98534.45
2018-06-25T05:27:37.405Z,98537.18
2018-06-25T05:28:40.206Z,98532.63
2018-06-25T05:29:43.162Z,98529.39
2018-06-25T05:30:46.021Z,98535.41
2018-06-25T05:31:48.829Z,98531.64
2018-06-25T05:32:51.613Z,98538.34
2018-06-25T05:33:54.432Z,98537.66
2018-06-25T05:34:57.670Z,98543.13
2018-06-25T05:36:00.481Z,98542.79
2018-06-25T05:37:03.999Z,98542.55
2018-06-25T05:38:06.809Z,98546.95
2018-06-25T05:39:10.392Z,98542.75
2018-06-25T05:40:13.173Z,98542.66
2018-06-25T05:41:16.410Z,98547.92
2018-06-25T05:42:22.952Z,98550.42
2018-06-25T05:43:25.778Z,98547.20
2018-06-25T05:44:28.618Z,98549.45
2018-06-25T05:45:31.430Z,98553.90
2018-06-25T05:46:34.221Z,98558.09
2018-06-25T05:47:37.511Z,98558.34
2018-06-25T05:48:40.333Z,98555.95
2018-06-25T05:49:43.167Z,98562.19
2018-06-25T05:50:45.998Z,98550.94
2018-06-25T05:51:48.798Z,98551.77
2018-06-25T05:52:51.601Z,98548.58
2018-06-25T05:53:55.734Z,98552.30
2018-06-25T05:54:58.548Z,98556.23
2018-06-25T05:56:02.354Z,98551.55
2018-06-25T05:57:05.164Z,98552.70
2018-06-25T05:58:08.098Z,98553.75
2018-06-25T05:59:12.281Z,98554.57
2018-06-25T06:00:15.496Z,98564.31
2018-06-25T06:01:19.583Z,98560.14
2018-06-25T06:02:22.359Z,98557.05
2018-06-25T06:03:25.127Z,98559.89
2018-06-25T06:04:28.729Z,98561.39
2018-06-25T06:05:31.489Z,98566.10
2018-06-25T06:06:34.746Z,98558.78
2018-06-25T06:07:37.658Z,98565.20
2018-06-25T06:08:40.454Z,98563.61
2018-06-25T06:09:43.409Z,98562.13
2018-06-25T06:10:46.270Z,98559.73
2018-06-25T06:11:49.082Z,98563.38
2018-06-25T06:12:52.207Z,98563.86
2018-06-25T06:13:55.061Z,98560.11
2018-06-25T06:14:57.946Z,98567.64
2018-06-25T06:16:00.884Z,98562.84
2018-06-25T06:17:03.725Z,98557.59
2018-06-25T06:18:06.564Z,98552.92
2018-06-25T06:19:09.915Z,98552.47
2018-06-25T06:20:12.737Z,98562.77
2018-06-25T06:21:15.565Z,98560.25
2018-06-25T06:22:18.450Z,98562.89
2018-06-25T06:23:21.260Z,98560.38
2018-06-25T06:24:24.092Z,98560.82
2018-06-25T06:25:26.922Z,98558.31
2018-06-25T06:26:29.733Z,98564.81
2018-06-25T06:27:33.735Z,98559.23
2018-06-25T06:28:36.854Z,98558.53
2018-06-25T06:29:39.675Z,98561.97
2018-06-25T06:30:42.982Z,98563.91
2018-06-25T06:31:45.823Z,98566.66
2018-06-25T06:32:48.712Z,98569.08
2018-06-25T06:33:51.519Z,98563.00
2018-06-25T06:34:54.418Z,98575.80
2018-06-25T06:35:57.221Z,98571.09
2018-06-25T06:37:00.587Z,98576.03
2018-06-25T06:38:03.480Z,98579.23
2018-06-25T06:39:06.318Z,98576.61
2018-06-25T06:40:15.378Z,98577.98
2018-06-25T06:41:18.182Z,98580.59
2018-06-25T06:42:20.974Z,98584.58
2018-06-25T06:43:24.639Z,98583.09
2018-06-25T06:44:28.464Z,98586.66
2018-06-25T06:45:31.395Z,98584.25
2018-06-25T06:46:34.120Z,98587.70
2018-06-25T06:47:36.882Z,98590.56
2018-06-25T06:48:39.648Z,98586.45
2018-06-25T06:49:47.607Z,98590.33
2018-06-25T06:50:50.406Z,98588.48
2018-06-25T06:51:54.608Z,98592.60
2018-06-25T06:52:57.402Z,98589.39
2018-06-25T06:54:00.992Z,98589.30
2018-06-25T06:55:03.883Z,98596.27
2018-06-25T06:56:07.005Z,98593.27
2018-06-25T06:57:09.800Z,98592.91
2018-06-25T06:58:12.570Z,98600.13
2018-06-25T06:59:15.445Z,98598.29
2018-06-25T07:00:18.232Z,98599.31
2018-06-25T07:01:21.724Z,98598.83
2018-06-25T07:02:24.858Z,98601.81
2018-06-25T07:03:27.643Z,98605.69
2018-06-25T07:04:32.492Z,98602.83
2018-06-25T07:05:35.327Z,98598.75
2018-06-25T07:06:39.115Z,98597.17
2018-06-25T07:07:41.916Z,98597.07
2018-06-25T07:08:46.024Z,98594.22
2018-06-25T07:09:48.883Z,98596.03
2018-06-25T07:10:51.694Z,98597.98
2018-06-25T07:11:54.750Z,98595.23
2018-06-25T07:12:57.583Z,98593.26
2018-06-25T07:14:00.420Z,98593.61
2018-06-25T07:15:03.628Z,98596.00
2018-06-25T07:16:10.509Z,98600.00
2018-06-25T07:17:13.978Z,98592.89
2018-06-25T07:18:17.758Z,98592.37
2018-06-25T07:19:21.013Z,98587.80
2018-06-25T07:20:23.802Z,98589.96
2018-06-25T07:21:27.948Z,98586.53
2018-06-25T07:22:30.737Z,98590.20
2018-06-25T07:23:33.546Z,98587.70
2018-06-25T07:24:36.378Z,98596.42
2018-06-25T07:25:39.371Z,98595.50
2018-06-25T07:26:42.220Z,98593.94
2018-06-25T07:27:45.344Z,98591.44
2018-06-25T07:28:49.929Z,98591.55
2018-06-25T07:29:54.124Z,98595.63
2018-06-25T07:30:58.908Z,98595.48
2018-06-25T07:32:01.875Z,98594.34
2018-06-25T07:33:04.667Z,98596.59
2018-06-25T07:34:07.854Z,98593.09
2018-06-25T07:35:10.691Z,98598.80
2018-06-25T07:36:13.470Z,98595.09
2018-06-25T07:37:16.306Z,98600.73
2018-06-25T07:38:19.689Z,98600.05
2018-06-25T07:39:24.069Z,98601.30
2018-06-25T07:40:27.169Z,98598.97
2018-06-25T07:41:29.960Z,98603.66
2018-06-25T07:42:33.751Z,98595.90
2018-06-25T07:43:36.547Z,98604.02
2018-06-25T07:44:40.139Z,98603.81
2018-06-25T07:45:43.930Z,98603.24
2018-06-25T07:46:47.914Z,98600.13
2018-06-25T07:47:50.698Z,98608.93
2018-06-25T07:48:53.486Z,98598.95
2018-06-25T07:49:56.258Z,98597.31
2018-06-25T07:51:01.717Z,98596.55
2018-06-25T07:52:05.526Z,98594.65
2018-06-25T07:53:08.630Z,98597.13
2018-06-25T07:54:11.427Z,98603.61
2018-06-25T07:55:15.271Z,98606.38
2018-06-25T07:56:18.090Z,98607.21
2018-06-25T07:57:20.884Z,98608.34
2018-06-25T07:58:23.693Z,98609.03
2018-06-25T07:59:26.498Z,98602.25
2018-06-25T08:00:29.321Z,98608.24
2018-06-25T08:01:32.180Z,98608.53
2018-06-25T08:02:34.983Z,98606.75
2018-06-25T08:03:38.495Z,98608.94
2018-06-25T08:04:43.218Z,98606.77
2018-06-25T08:05:47.058Z,98603.81
2018-06-25T08:06:51.420Z,98599.70
2018-06-25T08:07:54.411Z,98602.37
2018-06-25T08:08:58.474Z,98604.89
2018-06-25T08:10:02.570Z,98603.80
2018-06-25T08:11:05.347Z,98607.13
2018-06-25T08:12:08.156Z,98610.41
2018-06-25T08:13:13.074Z,98606.97
2018-06-25T08:14:15.871Z,98606.84
2018-06-25T08:15:18.674Z,98611.42
2018-06-25T08:16:22.759Z,98613.41
2018-06-25T08:17:25.586Z,98612.61
2018-06-25T08:18:28.365Z,98616.27
2018-06-25T08:19:31.173Z,98616.02
2018-06-25T08:20:34.155Z,98615.91
2018-06-25T08:21:37.109Z,98620.45
2018-06-25T08:22:40.340Z,98621.88
2018-06-25T08:23:43.540Z,98625.38
2018-06-25T08:24:46.360Z,98618.94
2018-06-25T08:25:49.243Z,98620.55
2018-06-25T08:26:52.032Z,98629.75
2018-06-25T08:27:54.869Z,98625.80
2018-06-25T08:29:00.144Z,98633.27
2018-06-25T08:30:03.451Z,98625.80
2018-06-25T08:31:06.402Z,98634.73
2018-06-25T08:32:09.179Z,98636.66
2018-06-25T08:33:12.019Z,98637.59
2018-06-25T08:34:15.418Z,98631.52
2018-06-25T08:35:18.709Z,98634.30
2018-06-25T08:36:21.540Z,98641.04
2018-06-25T08:37:24.402Z,98639.57
2018-06-25T08:38:27.722Z,98632.24
2018-06-25T08:39:30.494Z,98640.44
2018-06-25T08:40:33.297Z,98636.44
2018-06-25T08:41:36.395Z,98640.41
2018-06-25T08:42:39.180Z,98644.63
2018-06-25T08:43:41.960Z,98646.45
2018-06-25T08:44:45.506Z,98644.59
2018-06-25T08:45:48.364Z,98646.89
2018-06-25T08:46:51.178Z,98647.80
2018-06-25T08:47:54.275Z,98649.92
2018-06-25T08:48:59.460Z,98645.05
2018-06-25T08:50:02.259Z,98653.56
2018-06-25T08:51:05.099Z,98648.52
2018-06-25T08:52:07.910Z,98652.19
2018-06-25T08:53:10.695Z,98648.74
2018-06-25T08:54:13.780Z,98654.80
2018-06-25T08:55:16.538Z,98653.76
2018-06-25T08:56:19.350Z,98652.73
2018-06-25T08:57:22.131Z,98654.53
2018-06-25T08:58:25.004Z,98649.00
2018-06-25T08:59:27.984Z,98642.39
2018-06-25T09:00:31.095Z,98648.83
2018-06-25T09:01:33.971Z,98651.67
2018-06-25T09:02:37.647Z,98650.44
2018-06-25T09:03:41.664Z,98645.85
2018-06-25T09:04:44.485Z,98643.17
2018-06-25T09:05:47.335Z,98647.20
2018-06-25T09:06:50.799Z,98645.78
2018-06-25T09:07:53.569Z,98649.06
2018-06-25T09:08:56.639Z,98651.70
2018-06-25T09:09:59.506Z,98645.75
2018-06-25T09:11:02.335Z,98651.97
2018-06-25T09:12:05.523Z,98651.48
2018-06-25T09:13:08.332Z,98651.50
2018-06-25T09:14:11.736Z,98656.81
2018-06-25T09:15:15.252Z,98660.98
2018-06-25T09:16:18.103Z,98660.81
2018-06-25T09:17:21.177Z,98656.38
2018-06-25T09:18:24.445Z,98657.65
2018-06-25T09:19:28.395Z,98661.42
2018-06-25T09:20:31.149Z,98657.46
2018-06-25T09:21:34.399Z,98661.48
2018-06-25T09:22:38.740Z,98653.75
2018-06-25T09:23:41.566Z,98657.34
2018-06-25T09:24:44.698Z,98652.28
2018-06-25T09:25:48.644Z,98654.21
2018-06-25T09:26:52.211Z,98649.02
2018-06-25T09:27:55.768Z,98657.84
2018-06-25T09:29:00.604Z,98650.13
2018-06-25T09:30:03.502Z,98653.61
2018-06-25T09:31:06.749Z,98659.70
2018-06-25T09:32:09.600Z,98647.50
2018-06-25T09:33:12.440Z,98656.27
2018-06-25T09:34:21.271Z,98652.05
2018-06-25T09:35:24.141Z,98654.33
2018-06-25T09:36:31.346Z,98660.82
2018-06-25T09:37:36.595Z,98654.90
2018-06-25T09:38:39.459Z,98658.85
2018-06-25T09:39:43.393Z,98652.03
2018-06-25T09:40:47.638Z,98649.90
2018-06-25T09:41:50.694Z,98654.05
2018-06-25T09:42:53.497Z,98656.19
2018-06-25T09:43:56.745Z,98654.39
2018-06-25T09:45:00.396Z,98655.11
2018-06-25T09:46:03.943Z,98661.41
2018-06-25T09:47:08.101Z,98654.65
2018-06-25T09:48:10.890Z,98652.56
2018-06-25T09:49:13.731Z,98651.97
2018-06-25T09:50:16.866Z,98654.94
2018-06-25T09:51:19.651Z,98656.27
2018-06-25T09:52:22.493Z,98648.82
2018-06-25T09:53:25.368Z,98655.59
2018-06-25T09:54:28.931Z,98655.48
2018-06-25T09:55:31.851Z,98654.61
2018-06-25T09:56:35.721Z,98649.88
2018-06-25T09:57:39.676Z,98658.26
2018-06-25T09:58:42.482Z,98651.77
2018-06-25T09:59:45.951Z,98655.91
2018-06-25T10:00:53.763Z,98650.61
2018-06-25T10:01:57.778Z,98650.98
2018-06-25T10:03:01.285Z,98656.58
2018-06-25T10:04:04.666Z,98654.25
2018-06-25T10:05:07.553Z,98657.40
2018-06-25T10:06:11.080Z,98657.16
2018-06-25T10:07:13.894Z,98659.08
2018-06-25T10:08:17.516Z,98661.02
2018-06-25T10:09:20.716Z,98661.45
2018-06-25T10:10:24.484Z,98663.94
2018-06-25T10:11:27.333Z,98665.49
2018-06-25T10:12:30.141Z,98668.92
2018-06-25T10:13:32.895Z,98662.02
2018-06-25T10:14:35.703Z,98670.52
2018-06-25T10:15:40.019Z,98668.47
2018-06-25T10:16:42.868Z,98664.27
2018-06-25T10:17:45.681Z,98667.23
2018-06-25T10:18:48.735Z,98666.94
2018-06-25T10:19:52.344Z,98668.39
2018-06-25T10:20:55.161Z,98669.29
2018-06-25T10:21:59.361Z,98672.31
2018-06-25T10:23:02.573Z,98672.53
2018-06-25T10:24:05.419Z,98669.65
2018-06-25T10:25:09.251Z,98669.80
2018-06-25T10:26:12.022Z,98671.75
2018-06-25T10:27:22.136Z,98672.99
2018-06-25T10:28:26.538Z,98679.22
2018-06-25T10:29:29.316Z,98676.09
2018-06-25T10:30:32.759Z,98673.91
2018-06-25T10:31:36.368Z,98672.52
2018-06-25T10:32:40.210Z,98674.34
2018-06-25T10:33:46.692Z,98675.13
2018-06-25T10:34:51.565Z,98670.50
2018-06-25T10:35:55.720Z,98664.42
2018-06-25T10:36:59.710Z,98672.55
2018-06-25T10:38:04.294Z,98673.34
2018-06-25T10:39:08.588Z,98673.70
2018-06-25T10:40:11.893Z,98667.82
2018-06-25T10:41:14.654Z,98678.06
2018-06-25T10:42:17.468Z,98678.70
2018-06-25T10:43:20.380Z,98676.52
2018-06-25T10:44:24.761Z,98670.42
2018-06-25T10:45:28.539Z,98672.33
2018-06-25T10:46:31.735Z,98679.45
2018-06-25T10:47:34.527Z,98677.81
2018-06-25T10:48:37.344Z,98675.43
2018-06-25T10:49:43.138Z,98676.91
2018-06-25T10:50:46.883Z,98679.56
2018-06-25T10:51:49.719Z,98675.45
2018-06-25T10:52:55.321Z,98679.16
2018-06-25T10:54:04.355Z,98681.72
2018-06-25T10:55:09.394Z,98681.00
2018-06-25T10:56:13.850Z,98685.81
2018-06-25T10:57:16.643Z,98682.38
2018-06-25T10:58:19.524Z,98678.36
2018-06-25T10:59:22.669Z,98680.53
2018-06-25T11:00:26.466Z,98682.86
2018-06-25T11:01:30.407Z,98681.91
2018-06-25T11:02:33.217Z,98677.59
2018-06-25T11:03:36.766Z,98678.34
2018-06-25T11:04:40.353Z,98683.56
2018-06-25T11:05:43.561Z,98678.99
2018-06-25T11:06:46.403Z,98685.05
2018-06-25T11:07:49.264Z,98683.09
2018-06-25T11:08:55.678Z,98683.02
2018-06-25T11:10:00.396Z,98686.00
2018-06-25T11:11:04.126Z,98682.55
2018-06-25T11:12:07.374Z,98678.78
2018-06-25T11:13:11.724Z,98674.19
2018-06-25T11:14:15.441Z,98671.81
2018-06-25T11:15:18.227Z,98676.14
2018-06-25T11:16:21.088Z,98677.33
2018-06-25T11:17:23.865Z,98684.34
2018-06-25T11:18:27.047Z,98684.79
2018-06-25T11:19:30.440Z,98677.67
2018-06-25T11:20:33.859Z,98679.86
2018-06-25T11:21:36.668Z,98676.05
2018-06-25T11:22:40.000Z,98677.55
2018-06-25T11:23:43.379Z,98678.11
2018-06-25T11:24:51.261Z,98679.08
2018-06-25T11:25:55.435Z,98677.55
2018-06-25T11:26:58.354Z,98685.88
2018-06-25T11:28:04.448Z,98681.73
2018-06-25T11:29:08.379Z,98683.93
2018-06-25T11:30:11.245Z,98689.08
2018-06-25T11:31:14.531Z,98693.21
2018-06-25T11:32:17.335Z,98688.06
2018-06-25T11:33:20.188Z,98682.88
2018-06-25T11:34:22.956Z,98689.22
2018-06-25T11:35:25.787Z,98684.41
2018-06-25T11:36:28.610Z,98686.31
2018-06-25T11:37:32.006Z,98682.66
2018-06-25T11:38:34.846Z,98675.91
2018-06-25T11:39:37.734Z,98685.77
2018-06-25T11:40:41.676Z,98676.23
2018-06-25T11:41:44.464Z,98687.66
2018-06-25T11:42:50.924Z,98686.80
2018-06-25T11:43:54.067Z,98683.09
2018-06-25T11:44:57.969Z,98680.25
2018-06-25T11:46:00.984Z,98682.24
2018-06-25T11:47:05.342Z,98678.25
2018-06-25T11:48:08.891Z,98681.50
2018-06-25T11:49:11.705Z,98674.59
2018-06-25T11:50:14.866Z,98673.30
2018-06-25T11:51:17.649Z,98681.56
2018-06-25T11:52:22.029Z,98682.39
2018-06-25T11:53:25.539Z,98687.02
2018-06-25T11:54:28.411Z,98682.44
2018-06-25T11:55:31.285Z,98676.77
2018-06-25T11:56:34.596Z,98686.78
2018-06-25T11:57:37.578Z,98686.49
2018-06-25T11:58:43.243Z,98692.47
2018-06-25T11:59:52.282Z,98696.82
2018-06-25T12:00:55.631Z,98691.91
2018-06-25T12:01:59.489Z,98687.02
2018-06-25T12:03:02.663Z,98695.78
2018-06-25T12:04:06.283Z,98693.73
2018-06-25T12:05:09.554Z,98690.03
2018-06-25T12:06:12.692Z,98693.31
2018-06-25T12:07:15.835Z,98699.32
2018-06-25T12:08:18.643Z,98693.09
2018-06-25T12:09:21.435Z,98695.70
2018-06-25T12:10:24.353Z,98698.61
2018-06-25T12:11:27.195Z,98704.13
2018-06-25T12:12:31.002Z,98702.75
2018-06-25T12:13:34.406Z,98700.78
2018-06-25T12:14:37.565Z,98704.06
2018-06-25T12:15:41.265Z,98706.82
2018-06-25T12:16:44.070Z,98696.08
2018-06-25T12:17:48.690Z,98702.81
2018-06-25T12:18:51.770Z,98699.41
2018-06-25T12:19:54.676Z,98707.17
2018-06-25T12:20:59.984Z,98697.59
2018-06-25T12:22:02.934Z,98695.99
2018-06-25T12:23:05.825Z,98693.81
2018-06-25T12:24:08.522Z,98700.70
2018-06-25T12:25:12.241Z,98693.62
2018-06-25T12:26:15.541Z,98699.07
2018-06-25T12:27:18.318Z,98694.70
2018-06-25T12:28:21.958Z,98690.63
2018-06-25T12:29:24.748Z,98692.00
2018-06-25T12:30:27.572Z,98696.89
2018-06-25T12:31:30.418Z,98694.62
2018-06-25T12:32:33.578Z,98690.67
2018-06-25T12:33:36.405Z,98692.13
2018-06-25T12:34:40.198Z,98694.81
2018-06-25T12:35:44.560Z,98697.47
2018-06-25T12:36:48.322Z,98697.42
2018-06-25T12:37:52.540Z,98698.00
2018-06-25T12:38:55.628Z,98696.05
2018-06-25T12:39:58.540Z,98700.61
2018-06-25T12:41:01.380Z,98695.45
2018-06-25T12:42:04.914Z,98702.65
2018-06-25T12:43:08.402Z,98703.05
2018-06-25T12:44:11.311Z,98695.92
2018-06-25T12:45:14.677Z,98699.55
2018-06-25T12:46:17.672Z,98701.91
2018-06-25T12:47:20.533Z,98697.53
2018-06-25T12:48:24.263Z,98698.91
2018-06-25T12:49:28.343Z,98705.16
2018-06-25T12:50:31.562Z,98702.45
2018-06-25T12:51:34.371Z,98704.59
2018-06-25T12:52:37.763Z,98699.22
2018-06-25T12:53:41.545Z,98707.28
2018-06-25T12:54:45.344Z,98700.34
2018-06-25T12:55:48.181Z,98703.25
2018-06-25T12:56:51.569Z,98697.87
2018-06-25T12:57:54.509Z,98699.75
2018-06-25T12:58:58.996Z,98698.89
2018-06-25T13:00:01.806Z,98700.41
2018-06-25T13:01:04.606Z,98704.92
2018-06-25T13:02:08.386Z,98701.95
2018-06-25T13:03:12.662Z,98698.83
2018-06-25T13:04:15.482Z,98697.96